Time;durP1;ratioP1;P1;durP2;ratioP2;P2;SDS_P1;SDS_P2;PMS_P1;PMS_P2;Temp;Humidity;BMP_temperature;BMP_pressure;BME280_temperature;BME280_humidity;BME280_pressure;Samples;Min_cycle;Max_cycle;Signal;HPM_P1;HPM_P2
2021/09/19 00:01:24;;;;;;;8.77;7.97;;;;;;;;;;5126485;27;24405;-59
2021/09/19 00:03:49;;;;;;;7.60;7.00;;;;;;;;;;5127907;27;24503;-60
2021/09/19 00:06:15;;;;;;;6.95;6.45;;;;;;;;;;5125469;27;24688;-60
2021/09/19 00:08:40;;;;;;;7.47;6.72;;;;;;;;;;5128169;27;24473;-60
2021/09/19 00:11:05;;;;;;;7.75;7.15;;;;;;;;;;5121677;27;24414;-60
2021/09/19 00:13:30;;;;;;;6.50;5.90;;;;;;;;;;5111238;27;24527;-60
2021/09/19 00:15:55;;;;;;;6.40;5.80;;;;;;;;;;5123170;27;24417;-61
2021/09/19 00:18:21;;;;;;;6.10;5.60;;;;;;;;;;5127407;27;24416;-61
2021/09/19 00:20:46;;;;;;;6.00;5.50;;;;;;;;;;5126745;27;25015;-61
2021/09/19 00:23:11;;;;;;;5.67;5.27;;;;;;;;;;5127452;27;24500;-61
2021/09/19 00:25:37;;;;;;;6.43;5.93;;;;;;;;;;5127845;27;24546;-61
2021/09/19 00:28:03;;;;;;;5.20;4.80;;;;;;;;;;5126762;27;24971;-61
2021/09/19 00:30:28;;;;;;;6.53;5.93;;;;;;;;;;5127176;27;24416;-61
2021/09/19 00:32:53;;;;;;;5.90;5.30;;;;;;;;;;5119386;27;24512;-60
2021/09/19 00:35:18;;;;;;;6.10;5.60;;;;;;;;;;5123312;27;24420;-60
2021/09/19 00:37:44;;;;;;;5.88;5.38;;;;;;;;;;5113533;27;24424;-61
2021/09/19 00:40:09;;;;;;;5.50;5.00;;;;;;;;;;5121130;27;25009;-61
2021/09/19 00:42:35;;;;;;;7.10;6.50;;;;;;;;;;5125362;27;24481;-61
2021/09/19 00:45:02;;;;;;;5.70;5.30;;;;;;;;;;5120699;27;24458;-61
2021/09/19 00:47:27;;;;;;;5.85;5.45;;;;;;;;;;5108572;27;25019;-61
2021/09/19 00:49:52;;;;;;;5.95;5.45;;;;;;;;;;5117938;27;24505;-60
2021/09/19 00:52:18;;;;;;;5.50;5.10;;;;;;;;;;5121965;27;25033;-61
2021/09/19 00:54:44;;;;;;;5.00;4.60;;;;;;;;;;5110662;27;24445;-61
2021/09/19 00:57:10;;;;;;;6.30;5.80;;;;;;;;;;5127603;27;24951;-60
2021/09/19 00:59:37;;;;;;;6.60;6.10;;;;;;;;;;5124178;27;24470;-60
2021/09/19 01:02:02;;;;;;;5.60;5.10;;;;;;;;;;5114943;27;24713;-61
2021/09/19 01:04:27;;;;;;;5.03;4.63;;;;;;;;;;5124859;27;24532;-61
2021/09/19 01:06:52;;;;;;;6.15;5.65;;;;;;;;;;5116571;27;24417;-60
2021/09/19 01:09:17;;;;;;;5.90;5.40;;;;;;;;;;5120266;27;24794;-61
2021/09/19 01:11:43;;;;;;;4.83;4.43;;;;;;;;;;5116043;27;24429;-60
2021/09/19 01:14:08;;;;;;;5.00;4.60;;;;;;;;;;5107125;28;24964;-61
2021/09/19 01:16:33;;;;;;;4.90;4.40;;;;;;;;;;5127344;28;24401;-61
2021/09/19 01:18:59;;;;;;;6.00;5.40;;;;;;;;;;5127239;28;24390;-61
2021/09/19 01:21:25;;;;;;;5.67;5.27;;;;;;;;;;5127608;28;24400;-61
2021/09/19 01:24:03;;;;;;;5.77;5.37;;;;;;;;;;5127378;28;24405;-61
2021/09/19 01:26:28;;;;;;;5.72;5.32;;;;;;;;;;5127338;28;24757;-60
2021/09/19 01:28:54;;;;;;;5.90;5.50;;;;;;;;;;5127123;28;24963;-61
2021/09/19 01:31:19;;;;;;;5.40;4.90;;;;;;;;;;5126237;28;24496;-61
2021/09/19 01:33:44;;;;;;;6.80;6.20;;;;;;;;;;5123393;28;24563;-60
2021/09/19 01:36:10;;;;;;;5.53;5.13;;;;;;;;;;5124790;28;24430;-61
2021/09/19 01:38:35;;;;;;;5.57;5.18;;;;;;;;;;5115394;28;24389;-60
2021/09/19 01:41:00;;;;;;;5.63;5.23;;;;;;;;;;5106365;28;25289;-61
2021/09/19 01:43:26;;;;;;;5.72;5.32;;;;;;;;;;5106258;28;24937;-61
2021/09/19 01:45:51;;;;;;;7.00;6.50;;;;;;;;;;5106332;28;25008;-61
2021/09/19 01:48:16;;;;;;;7.20;6.60;;;;;;;;;;5106378;28;24486;-60
2021/09/19 01:50:41;;;;;;;6.10;5.60;;;;;;;;;;5106610;28;24515;-60
2021/09/19 01:53:06;;;;;;;6.55;6.05;;;;;;;;;;5110333;28;24412;-60
2021/09/19 01:55:31;;;;;;;6.20;5.70;;;;;;;;;;5124235;27;24996;-60
2021/09/19 01:57:57;;;;;;;6.50;6.00;;;;;;;;;;5127562;27;24492;-60
2021/09/19 02:00:23;;;;;;;6.00;5.60;;;;;;;;;;5109985;28;24742;-61
2021/09/19 02:02:48;;;;;;;6.07;5.63;;;;;;;;;;5110139;28;24413;-61
2021/09/19 02:05:13;;;;;;;6.50;6.00;;;;;;;;;;5110216;28;25067;-60
2021/09/19 02:07:39;;;;;;;6.07;5.63;;;;;;;;;;5110473;28;24381;-61
2021/09/19 02:10:06;;;;;;;6.10;5.60;;;;;;;;;;5111916;27;24408;-61
2021/09/19 02:12:31;;;;;;;5.40;5.00;;;;;;;;;;5130445;27;24759;-61
2021/09/19 02:14:56;;;;;;;6.00;5.20;;;;;;;;;;5112485;27;24497;-61
2021/09/19 02:17:21;;;;;;;4.50;4.10;;;;;;;;;;5109879;28;24440;-61
2021/09/19 02:19:46;;;;;;;5.60;5.10;;;;;;;;;;5109146;28;24409;-61
2021/09/19 02:22:12;;;;;;;5.13;4.73;;;;;;;;;;5110220;28;24398;-61
2021/09/19 02:24:37;;;;;;;5.53;5.03;;;;;;;;;;5110021;28;24409;-61
2021/09/19 02:27:03;;;;;;;5.38;4.95;;;;;;;;;;5109697;28;25048;-61
2021/09/19 02:29:28;;;;;;;5.00;4.60;;;;;;;;;;5110030;28;24923;-61
2021/09/19 02:31:53;;;;;;;4.60;4.30;;;;;;;;;;5110038;28;24442;-61
2021/09/19 02:34:18;;;;;;;5.10;4.70;;;;;;;;;;5109644;28;24425;-60
2021/09/19 02:36:44;;;;;;;4.40;4.00;;;;;;;;;;5109936;28;24406;-60
2021/09/19 02:39:09;;;;;;;4.10;3.80;;;;;;;;;;5109244;28;24413;-60
2021/09/19 02:41:34;;;;;;;4.37;4.00;;;;;;;;;;5109322;28;24527;-61
2021/09/19 02:44:00;;;;;;;5.20;4.70;;;;;;;;;;5109336;28;24503;-60
2021/09/19 02:46:25;;;;;;;4.87;4.57;;;;;;;;;;5110505;27;24401;-60
2021/09/19 02:48:50;;;;;;;3.90;3.60;;;;;;;;;;5129817;27;24380;-60
2021/09/19 02:51:15;;;;;;;4.50;4.10;;;;;;;;;;5130247;27;24393;-61
2021/09/19 02:53:40;;;;;;;4.55;3.97;;;;;;;;;;5129989;27;24433;-61
2021/09/19 02:56:05;;;;;;;4.20;3.90;;;;;;;;;;5129121;27;24552;-61
2021/09/19 02:58:30;;;;;;;3.95;3.55;;;;;;;;;;5129666;27;24459;-61
2021/09/19 03:00:55;;;;;;;4.90;4.50;;;;;;;;;;5129485;27;24433;-59
2021/09/19 03:03:21;;;;;;;4.30;3.90;;;;;;;;;;5129523;27;24806;-59
2021/09/19 03:05:46;;;;;;;4.97;4.57;;;;;;;;;;5129234;27;24416;-60
2021/09/19 03:08:11;;;;;;;4.75;4.30;;;;;;;;;;5125284;27;24516;-59
2021/09/19 03:10:36;;;;;;;4.25;3.95;;;;;;;;;;5126813;27;25287;-60
2021/09/19 03:13:02;;;;;;;4.43;4.10;;;;;;;;;;5129246;27;24413;-60
2021/09/19 03:15:27;;;;;;;5.03;4.63;;;;;;;;;;5128744;27;24445;-58
2021/09/19 03:17:52;;;;;;;4.67;4.27;;;;;;;;;;5128942;27;24389;-59
2021/09/19 03:20:17;;;;;;;4.80;4.40;;;;;;;;;;5128252;27;24438;-60
2021/09/19 03:22:44;;;;;;;5.20;4.70;;;;;;;;;;5129189;27;24958;-59
2021/09/19 03:25:09;;;;;;;4.75;3.90;;;;;;;;;;5128692;27;24503;-58
2021/09/19 03:27:35;;;;;;;3.80;3.50;;;;;;;;;;5128812;27;25406;-59
2021/09/19 03:30:00;;;;;;;3.45;3.15;;;;;;;;;;5128650;27;24388;-59
2021/09/19 03:32:25;;;;;;;4.07;3.77;;;;;;;;;;5128722;27;24420;-60
2021/09/19 03:34:50;;;;;;;4.30;4.00;;;;;;;;;;5128629;27;24981;-59
2021/09/19 03:37:15;;;;;;;4.30;4.00;;;;;;;;;;5128758;27;24396;-59
2021/09/19 03:39:41;;;;;;;4.67;4.27;;;;;;;;;;5128427;27;24404;-60
2021/09/19 03:42:06;;;;;;;4.05;3.75;;;;;;;;;;5128222;27;24404;-59
2021/09/19 03:44:31;;;;;;;3.97;3.67;;;;;;;;;;5128640;27;24865;-59
2021/09/19 03:46:56;;;;;;;4.00;3.70;;;;;;;;;;5123087;27;24402;-59
2021/09/19 03:49:21;;;;;;;4.43;4.07;;;;;;;;;;5107643;28;24401;-60
2021/09/19 03:51:47;;;;;;;4.20;3.90;;;;;;;;;;5107974;28;24394;-60
2021/09/19 03:54:12;;;;;;;4.20;3.90;;;;;;;;;;5107940;28;24474;-59
2021/09/19 03:56:37;;;;;;;4.40;4.10;;;;;;;;;;5107674;28;24488;-58
2021/09/19 03:59:02;;;;;;;4.90;4.50;;;;;;;;;;5107217;28;24422;-59
2021/09/19 04:01:27;;;;;;;3.90;3.60;;;;;;;;;;5108229;28;24405;-59
2021/09/19 04:03:52;;;;;;;5.40;5.00;;;;;;;;;;5107653;28;24528;-59
2021/09/19 04:06:17;;;;;;;4.15;3.85;;;;;;;;;;5116350;27;24454;-59
2021/09/19 04:08:43;;;;;;;4.90;4.40;;;;;;;;;;5128272;27;24717;-58
2021/09/19 04:11:08;;;;;;;4.37;3.97;;;;;;;;;;5127661;27;24429;-59
2021/09/19 04:13:33;;;;;;;4.00;3.70;;;;;;;;;;5127795;27;24400;-58
2021/09/19 04:16:00;;;;;;;4.10;3.80;;;;;;;;;;5128200;27;24936;-59
2021/09/19 04:18:25;;;;;;;4.20;3.90;;;;;;;;;;5127185;27;24393;-59
2021/09/19 04:20:50;;;;;;;4.57;4.18;;;;;;;;;;5127428;27;24396;-59
2021/09/19 04:23:15;;;;;;;5.28;4.85;;;;;;;;;;5128059;27;24447;-59
2021/09/19 04:25:40;;;;;;;4.27;3.97;;;;;;;;;;5127961;27;24786;-60
2021/09/19 04:28:05;;;;;;;4.90;4.50;;;;;;;;;;5127295;27;24500;-59
2021/09/19 04:30:31;;;;;;;4.00;3.70;;;;;;;;;;5127957;27;24389;-59
2021/09/19 04:32:56;;;;;;;4.20;3.90;;;;;;;;;;5127477;27;24493;-60
2021/09/19 04:35:21;;;;;;;5.20;4.60;;;;;;;;;;5127199;27;25319;-58
2021/09/19 04:37:46;;;;;;;4.70;4.30;;;;;;;;;;5127520;27;24417;-59
2021/09/19 04:40:12;;;;;;;4.43;4.13;;;;;;;;;;5127220;27;25196;-59
2021/09/19 04:42:37;;;;;;;4.47;4.17;;;;;;;;;;5127396;27;24413;-59
2021/09/19 04:45:06;;;;;;;4.33;4.00;;;;;;;;;;5127305;27;24428;-59
2021/09/19 04:47:31;;;;;;;5.03;4.63;;;;;;;;;;5127782;27;24400;-59
2021/09/19 04:49:56;;;;;;;4.90;4.50;;;;;;;;;;5127496;27;24394;-59
2021/09/19 04:52:21;;;;;;;3.90;3.60;;;;;;;;;;5125732;27;24487;-59
2021/09/19 04:54:47;;;;;;;4.93;4.53;;;;;;;;;;5125274;27;24411;-59
2021/09/19 04:57:12;;;;;;;4.50;4.10;;;;;;;;;;5127203;27;24432;-58
2021/09/19 04:59:37;;;;;;;3.80;3.50;;;;;;;;;;5126878;27;24762;-58
2021/09/19 05:02:03;;;;;;;4.10;3.80;;;;;;;;;;5127530;27;24392;-59
2021/09/19 05:04:28;;;;;;;4.05;3.65;;;;;;;;;;5127344;27;24420;-59
2021/09/19 05:06:53;;;;;;;4.00;3.70;;;;;;;;;;5127057;27;24392;-59
2021/09/19 05:09:18;;;;;;;4.50;4.10;;;;;;;;;;5123705;27;24974;-58
2021/09/19 05:11:43;;;;;;;5.20;4.15;;;;;;;;;;5125389;27;24530;-58
2021/09/19 05:14:09;;;;;;;4.00;3.70;;;;;;;;;;5126738;27;24404;-58
2021/09/19 05:16:34;;;;;;;4.50;4.10;;;;;;;;;;5126579;27;24761;-58
2021/09/19 05:18:59;;;;;;;4.17;3.87;;;;;;;;;;5126652;28;24415;-59
2021/09/19 05:21:24;;;;;;;4.72;4.32;;;;;;;;;;5126425;28;24836;-60
2021/09/19 05:23:50;;;;;;;4.00;3.70;;;;;;;;;;5125489;28;24462;-59
2021/09/19 05:26:15;;;;;;;4.30;4.00;;;;;;;;;;5115431;28;24431;-59
2021/09/19 05:28:40;;;;;;;3.70;3.40;;;;;;;;;;5125524;28;24966;-58
2021/09/19 05:31:05;;;;;;;4.00;3.60;;;;;;;;;;5126707;27;24539;-59
2021/09/19 05:33:30;;;;;;;4.00;3.70;;;;;;;;;;5121380;27;24799;-59
2021/09/19 05:35:56;;;;;;;3.95;3.65;;;;;;;;;;5123208;27;24402;-59
2021/09/19 05:38:21;;;;;;;4.03;3.73;;;;;;;;;;5123540;27;24468;-59
2021/09/19 05:40:46;;;;;;;4.10;3.80;;;;;;;;;;5126746;27;24429;-59
2021/09/19 05:43:11;;;;;;;3.43;3.23;;;;;;;;;;5123934;27;24431;-60
2021/09/19 05:45:36;;;;;;;4.07;3.77;;;;;;;;;;5130351;27;24603;-60
2021/09/19 05:48:02;;;;;;;4.20;3.80;;;;;;;;;;5130675;27;24513;-59
2021/09/19 05:50:27;;;;;;;4.40;4.00;;;;;;;;;;5115717;27;24443;-60
2021/09/19 05:52:52;;;;;;;4.60;4.20;;;;;;;;;;5128312;27;25228;-59
2021/09/19 05:55:17;;;;;;;3.40;3.20;;;;;;;;;;5126148;27;25085;-60
2021/09/19 05:57:43;;;;;;;3.40;3.20;;;;;;;;;;5114081;27;24409;-59
2021/09/19 06:00:09;;;;;;;4.23;3.90;;;;;;;;;;5119357;27;24489;-60
2021/09/19 06:02:34;;;;;;;4.50;4.20;;;;;;;;;;5123564;27;24497;-60
2021/09/19 06:04:59;;;;;;;3.70;3.40;;;;;;;;;;5123003;27;24433;-60
2021/09/19 06:07:24;;;;;;;3.75;3.45;;;;;;;;;;5126902;27;24428;-60
2021/09/19 06:09:49;;;;;;;3.90;3.60;;;;;;;;;;5128087;27;25069;-60
2021/09/19 06:12:14;;;;;;;4.28;3.97;;;;;;;;;;5127793;27;24559;-59
2021/09/19 06:14:40;;;;;;;3.90;3.60;;;;;;;;;;5124777;27;24414;-59
2021/09/19 06:17:05;;;;;;;3.85;3.55;;;;;;;;;;5129076;27;24416;-59
2021/09/19 06:19:30;;;;;;;3.63;3.33;;;;;;;;;;5129946;27;24920;-61
2021/09/19 06:21:58;;;;;;;3.90;3.60;;;;;;;;;;5123236;27;24405;-61
2021/09/19 06:24:24;;;;;;;4.32;4.03;;;;;;;;;;5129579;27;24481;-59
2021/09/19 06:26:49;;;;;;;3.90;3.60;;;;;;;;;;5127728;27;24417;-60
2021/09/19 06:29:14;;;;;;;4.10;3.80;;;;;;;;;;5112155;27;24496;-61
2021/09/19 06:31:39;;;;;;;3.47;3.20;;;;;;;;;;5120415;27;24416;-60
2021/09/19 06:34:04;;;;;;;3.65;3.45;;;;;;;;;;5129810;27;24788;-61
2021/09/19 06:36:30;;;;;;;3.60;3.30;;;;;;;;;;5122859;27;24462;-61
2021/09/19 06:38:55;;;;;;;3.72;3.42;;;;;;;;;;5128162;27;24409;-60
2021/09/19 06:41:20;;;;;;;4.30;3.80;;;;;;;;;;5127740;27;24572;-61
2021/09/19 06:43:45;;;;;;;4.20;3.90;;;;;;;;;;5129383;27;24432;-61
2021/09/19 06:46:10;;;;;;;4.20;3.90;;;;;;;;;;5128068;27;24448;-61
2021/09/19 06:48:35;;;;;;;5.05;4.55;;;;;;;;;;5122246;27;24568;-61
2021/09/19 06:51:01;;;;;;;4.10;3.80;;;;;;;;;;5119134;27;24420;-60
2021/09/19 06:53:26;;;;;;;4.20;3.80;;;;;;;;;;5122937;27;24443;-61
2021/09/19 06:55:51;;;;;;;4.20;3.90;;;;;;;;;;5119173;27;25053;-61
2021/09/19 06:58:16;;;;;;;4.30;3.90;;;;;;;;;;5117024;27;24592;-61
2021/09/19 07:00:41;;;;;;;4.57;4.18;;;;;;;;;;5128040;27;24458;-61
2021/09/19 07:03:06;;;;;;;4.47;4.07;;;;;;;;;;5122084;27;24858;-61
2021/09/19 07:05:32;;;;;;;4.37;3.97;;;;;;;;;;5129571;27;24417;-61
2021/09/19 07:07:57;;;;;;;4.60;4.20;;;;;;;;;;5126162;27;24408;-59
2021/09/19 07:10:22;;;;;;;3.50;3.30;;;;;;;;;;5123275;27;24508;-58
2021/09/19 07:12:48;;;;;;;4.63;4.22;;;;;;;;;;5123098;27;24973;-60
2021/09/19 07:15:13;;;;;;;5.28;4.78;;;;;;;;;;5119892;27;24462;-60
2021/09/19 07:17:39;;;;;;;4.40;4.00;;;;;;;;;;5127289;27;24393;-59
2021/09/19 07:20:04;;;;;;;4.97;4.57;;;;;;;;;;5125210;27;24479;-59
2021/09/19 07:22:30;;;;;;;6.10;5.60;;;;;;;;;;5127687;27;24478;-60
2021/09/19 07:24:55;;;;;;;6.20;5.70;;;;;;;;;;5125598;27;24437;-59
2021/09/19 07:27:21;;;;;;;7.55;6.90;;;;;;;;;;5117024;27;24473;-60
2021/09/19 07:29:46;;;;;;;8.35;7.75;;;;;;;;;;5106537;27;24416;-60
2021/09/19 07:32:13;;;;;;;8.33;7.63;;;;;;;;;;5122412;27;24426;-59
2021/09/19 07:34:38;;;;;;;8.00;7.40;;;;;;;;;;5113369;27;25082;-60
2021/09/19 07:37:04;;;;;;;6.97;6.43;;;;;;;;;;5122841;27;24521;-60
2021/09/19 07:39:30;;;;;;;7.22;6.63;;;;;;;;;;5128313;27;24397;-60
2021/09/19 07:41:55;;;;;;;7.17;6.67;;;;;;;;;;5128198;27;24558;-59
2021/09/19 07:44:21;;;;;;;7.20;6.60;;;;;;;;;;5128217;27;24497;-60
2021/09/19 07:46:46;;;;;;;7.18;6.65;;;;;;;;;;5123724;27;24420;-60
2021/09/19 07:49:11;;;;;;;6.90;6.30;;;;;;;;;;5125580;27;24418;-59
2021/09/19 07:51:37;;;;;;;6.30;5.80;;;;;;;;;;5127823;27;24404;-60
2021/09/19 07:54:02;;;;;;;6.53;6.03;;;;;;;;;;5127082;27;24427;-60
2021/09/19 07:56:27;;;;;;;6.83;6.30;;;;;;;;;;5127446;27;24939;-59
2021/09/19 07:58:52;;;;;;;7.30;6.70;;;;;;;;;;5127174;27;24425;-59
2021/09/19 08:01:17;;;;;;;6.88;6.30;;;;;;;;;;5127552;27;24757;-59
2021/09/19 08:03:42;;;;;;;6.07;5.68;;;;;;;;;;5127671;27;24468;-59
2021/09/19 08:06:08;;;;;;;6.28;5.78;;;;;;;;;;5127440;27;24420;-59
2021/09/19 08:08:33;;;;;;;5.90;5.50;;;;;;;;;;5126916;27;24827;-60
2021/09/19 08:10:59;;;;;;;6.97;6.47;;;;;;;;;;5126839;27;24420;-60
2021/09/19 08:13:24;;;;;;;6.88;6.38;;;;;;;;;;5127448;27;24389;-60
2021/09/19 08:15:49;;;;;;;6.30;5.87;;;;;;;;;;5127464;27;24970;-60
2021/09/19 08:18:14;;;;;;;6.00;5.50;;;;;;;;;;5127475;27;24507;-60
2021/09/19 08:20:40;;;;;;;6.40;5.90;;;;;;;;;;5126693;27;24999;-60
2021/09/19 08:23:05;;;;;;;6.73;6.23;;;;;;;;;;5127331;27;24436;-60
2021/09/19 08:25:35;;;;;;;6.07;5.57;;;;;;;;;;5127439;27;24403;-60
2021/09/19 08:28:01;;;;;;;6.65;6.15;;;;;;;;;;5126918;27;24416;-59
2021/09/19 08:30:26;;;;;;;6.30;5.90;;;;;;;;;;5126949;27;24760;-60
2021/09/19 08:32:51;;;;;;;6.60;6.10;;;;;;;;;;5127256;27;24834;-61
2021/09/19 08:35:16;;;;;;;6.57;6.07;;;;;;;;;;5127214;27;24447;-60
2021/09/19 08:37:42;;;;;;;6.03;5.63;;;;;;;;;;5127450;27;25005;-61
2021/09/19 08:40:09;;;;;;;5.60;5.20;;;;;;;;;;5127137;27;24442;-61
2021/09/19 08:42:36;;;;;;;5.40;5.00;;;;;;;;;;5126848;27;24389;-60
2021/09/19 08:45:02;;;;;;;5.80;5.40;;;;;;;;;;5126600;27;24463;-61
2021/09/19 08:47:29;;;;;;;6.50;6.10;;;;;;;;;;5127235;27;24393;-60
2021/09/19 08:49:54;;;;;;;5.70;5.30;;;;;;;;;;5126964;27;24378;-61
2021/09/19 08:52:19;;;;;;;5.70;5.20;;;;;;;;;;5126593;27;24392;-60
2021/09/19 08:54:44;;;;;;;5.40;5.00;;;;;;;;;;5127170;27;24716;-60
2021/09/19 08:57:10;;;;;;;5.20;4.90;;;;;;;;;;5126341;27;24413;-61
2021/09/19 08:59:42;;;;;;;5.07;4.68;;;;;;;;;;5126988;27;24408;-61
2021/09/19 09:02:07;;;;;;;5.00;4.60;;;;;;;;;;5126514;27;24959;-60
2021/09/19 09:04:35;;;;;;;5.60;5.20;;;;;;;;;;5126516;27;24436;-59
2021/09/19 09:07:01;;;;;;;5.07;4.70;;;;;;;;;;5126073;27;24401;-59
2021/09/19 09:09:26;;;;;;;5.47;5.07;;;;;;;;;;5126627;27;24940;-59
2021/09/19 09:12:01;;;;;;;5.50;5.10;;;;;;;;;;5126718;27;24439;-59
2021/09/19 09:14:26;;;;;;;5.80;5.32;;;;;;;;;;5126606;27;24554;-59
2021/09/19 09:16:51;;;;;;;5.47;5.07;;;;;;;;;;5126630;27;25019;-59
2021/09/19 09:19:17;;;;;;;4.88;4.57;;;;;;;;;;5126546;27;24977;-61
2021/09/19 09:21:43;;;;;;;5.50;5.10;;;;;;;;;;5126636;28;24641;-61
2021/09/19 09:24:14;;;;;;;5.00;4.60;;;;;;;;;;5126529;28;24469;-61
2021/09/19 09:26:40;;;;;;;4.32;4.03;;;;;;;;;;5126791;28;24401;-61
2021/09/19 09:29:06;;;;;;;4.47;4.18;;;;;;;;;;5125899;28;24901;-61
2021/09/19 09:31:37;;;;;;;4.20;3.90;;;;;;;;;;5126261;28;24753;-61
2021/09/19 09:34:05;;;;;;;4.40;4.10;;;;;;;;;;5126269;28;24781;-62
2021/09/19 09:36:31;;;;;;;3.92;3.63;;;;;;;;;;5126217;28;24589;-62
2021/09/19 09:38:56;;;;;;;4.50;4.10;;;;;;;;;;5125950;28;24592;-62
2021/09/19 09:41:36;;;;;;;4.00;3.60;;;;;;;;;;5126230;28;24928;-62
2021/09/19 09:44:01;;;;;;;4.00;3.70;;;;;;;;;;5126493;28;24413;-62
2021/09/19 09:46:26;;;;;;;4.10;3.80;;;;;;;;;;5123059;28;24420;-61
2021/09/19 09:48:52;;;;;;;3.90;3.60;;;;;;;;;;5123747;28;24750;-62
2021/09/19 09:51:21;;;;;;;3.50;3.30;;;;;;;;;;5126170;28;24801;-61
2021/09/19 09:53:59;;;;;;;3.70;3.40;;;;;;;;;;5126374;28;24492;-62
2021/09/19 09:56:24;;;;;;;3.20;3.00;;;;;;;;;;5126006;28;24506;-61
2021/09/19 09:58:50;;;;;;;4.20;3.90;;;;;;;;;;5125267;28;24425;-61
2021/09/19 10:01:16;;;;;;;3.85;3.55;;;;;;;;;;5125788;28;24488;-62
2021/09/19 10:03:41;;;;;;;3.40;3.20;;;;;;;;;;5126058;28;24881;-62
2021/09/19 10:06:06;;;;;;;3.47;3.27;;;;;;;;;;5126115;28;24397;-62
2021/09/19 10:08:31;;;;;;;3.50;3.30;;;;;;;;;;5125903;28;24377;-62
2021/09/19 10:10:56;;;;;;;3.30;3.10;;;;;;;;;;5125688;28;24509;-62
2021/09/19 10:13:21;;;;;;;3.30;3.10;;;;;;;;;;5125881;28;24401;-62
2021/09/19 10:15:47;;;;;;;3.20;3.00;;;;;;;;;;5125954;27;24795;-62
2021/09/19 10:18:15;;;;;;;3.67;3.37;;;;;;;;;;5129391;27;24791;-61
2021/09/19 10:20:42;;;;;;;3.25;2.95;;;;;;;;;;5129427;27;24432;-61
2021/09/19 10:23:11;;;;;;;3.50;3.30;;;;;;;;;;5129755;27;24475;-61
2021/09/19 10:25:37;;;;;;;3.20;3.00;;;;;;;;;;5129865;27;24395;-61
2021/09/19 10:28:22;;;;;;;3.58;3.28;;;;;;;;;;5129486;27;24941;-61
2021/09/19 10:31:06;;;;;;;3.40;3.20;;;;;;;;;;5129521;27;24496;-61
2021/09/19 10:33:32;;;;;;;3.30;3.10;;;;;;;;;;5129314;27;24508;-61
2021/09/19 10:35:59;;;;;;;3.03;2.83;;;;;;;;;;5129719;27;24492;-61
2021/09/19 10:38:33;;;;;;;2.50;2.40;;;;;;;;;;5129527;27;24392;-61
2021/09/19 10:41:12;;;;;;;2.80;2.60;;;;;;;;;;5129202;27;25117;-61
2021/09/19 10:43:47;;;;;;;3.55;3.35;;;;;;;;;;5129296;27;25032;-61
2021/09/19 10:46:33;;;;;;;3.10;2.90;;;;;;;;;;5128219;27;24425;-60
2021/09/19 10:49:14;;;;;;;3.20;2.90;;;;;;;;;;5125764;27;24413;-60
2021/09/19 10:52:22;;;;;;;3.40;3.10;;;;;;;;;;5117186;27;24530;-61
2021/09/19 10:54:49;;;;;;;3.30;3.00;;;;;;;;;;5042100;28;24456;-61
2021/09/19 10:57:18;;;;;;;2.70;2.50;;;;;;;;;;5041324;28;24446;-61
2021/09/19 11:00:01;;;;;;;3.50;3.20;;;;;;;;;;5085094;27;24432;-61
2021/09/19 11:02:28;;;;;;;2.90;2.70;;;;;;;;;;5125362;27;24509;-61
2021/09/19 11:05:13;;;;;;;3.27;3.07;;;;;;;;;;5125873;27;24425;-61
2021/09/19 11:07:40;;;;;;;4.10;3.80;;;;;;;;;;5125410;27;25032;-61
2021/09/19 11:10:07;;;;;;;3.10;2.90;;;;;;;;;;5125161;27;24430;-61
2021/09/19 11:12:43;;;;;;;3.50;3.20;;;;;;;;;;5125454;27;24517;-61
2021/09/19 11:15:10;;;;;;;2.97;2.78;;;;;;;;;;5125688;27;24516;-61
2021/09/19 11:17:41;;;;;;;2.90;2.70;;;;;;;;;;5125215;27;24503;-61
2021/09/19 11:20:09;;;;;;;3.00;2.80;;;;;;;;;;5125683;27;24512;-61
2021/09/19 11:22:34;;;;;;;2.80;2.60;;;;;;;;;;5124932;27;24421;-61
2021/09/19 11:25:00;;;;;;;2.60;2.50;;;;;;;;;;5125816;27;25217;-61
2021/09/19 11:27:25;;;;;;;3.45;3.25;;;;;;;;;;5125100;27;24404;-61
2021/09/19 11:29:51;;;;;;;3.50;3.20;;;;;;;;;;5125472;27;24404;-61
2021/09/19 11:32:17;;;;;;;2.70;2.50;;;;;;;;;;5125006;27;24401;-60
2021/09/19 11:34:43;;;;;;;2.90;2.70;;;;;;;;;;5124582;27;24421;-61
2021/09/19 11:37:08;;;;;;;3.40;3.20;;;;;;;;;;5126073;27;24614;-61
2021/09/19 11:39:34;;;;;;;3.20;3.00;;;;;;;;;;5128072;27;24389;-61
2021/09/19 11:42:04;;;;;;;3.00;2.80;;;;;;;;;;5127732;27;24404;-61
2021/09/19 11:44:29;;;;;;;3.03;2.83;;;;;;;;;;5127463;27;24790;-61
2021/09/19 11:46:54;;;;;;;3.00;2.60;;;;;;;;;;5124880;27;24532;-61
2021/09/19 11:49:20;;;;;;;3.90;3.60;;;;;;;;;;5125573;27;24393;-61
2021/09/19 11:51:45;;;;;;;4.10;3.80;;;;;;;;;;5127346;27;25026;-61
2021/09/19 11:54:12;;;;;;;3.27;3.07;;;;;;;;;;5127156;27;24413;-61
2021/09/19 11:56:40;;;;;;;3.95;3.65;;;;;;;;;;5127290;27;24432;-61
2021/09/19 11:59:05;;;;;;;3.63;3.35;;;;;;;;;;5126681;27;24462;-61
2021/09/19 12:01:30;;;;;;;3.90;3.60;;;;;;;;;;5127493;27;24894;-59
2021/09/19 12:04:03;;;;;;;3.20;3.00;;;;;;;;;;5127129;27;24501;-61
2021/09/19 12:06:29;;;;;;;3.78;3.47;;;;;;;;;;5124100;27;24417;-62
2021/09/19 12:08:54;;;;;;;3.00;2.80;;;;;;;;;;5121467;27;24470;-61
2021/09/19 12:11:19;;;;;;;3.40;3.10;;;;;;;;;;5126355;27;24420;-62
2021/09/19 12:13:49;;;;;;;3.28;3.08;;;;;;;;;;5126677;27;25070;-62
2021/09/19 12:16:15;;;;;;;3.78;3.47;;;;;;;;;;5125438;27;24777;-59
2021/09/19 12:18:41;;;;;;;3.60;3.30;;;;;;;;;;5119981;27;24421;-59
2021/09/19 12:21:08;;;;;;;2.90;2.70;;;;;;;;;;5126130;27;24772;-60
2021/09/19 12:23:50;;;;;;;3.80;3.50;;;;;;;;;;5126025;27;24486;-60
2021/09/19 12:26:22;;;;;;;4.10;3.80;;;;;;;;;;5121743;27;24405;-59
2021/09/19 12:28:49;;;;;;;3.97;3.67;;;;;;;;;;5126598;27;24458;-60
2021/09/19 12:31:32;;;;;;;3.90;3.60;;;;;;;;;;5119477;27;24420;-60
2021/09/19 12:33:57;;;;;;;3.80;3.50;;;;;;;;;;5122230;27;24521;-60
2021/09/19 12:36:22;;;;;;;3.70;3.40;;;;;;;;;;5124130;27;25302;-60
2021/09/19 12:38:47;;;;;;;3.63;3.33;;;;;;;;;;5126412;27;24510;-59
2021/09/19 12:41:14;;;;;;;3.20;3.00;;;;;;;;;;5123786;27;24452;-59
2021/09/19 12:43:41;;;;;;;3.70;3.30;;;;;;;;;;5116523;27;24421;-61
2021/09/19 12:46:06;;;;;;;3.92;3.63;;;;;;;;;;5126455;27;24429;-60
2021/09/19 12:48:31;;;;;;;3.17;2.97;;;;;;;;;;5126040;27;24448;-61
2021/09/19 12:51:00;;;;;;;3.85;3.55;;;;;;;;;;5126623;27;24393;-62
2021/09/19 12:53:26;;;;;;;3.20;3.00;;;;;;;;;;5119385;27;25027;-61
2021/09/19 12:55:52;;;;;;;3.90;3.60;;;;;;;;;;5121416;27;24412;-60
2021/09/19 12:58:17;;;;;;;3.35;3.05;;;;;;;;;;5106254;27;24410;-61
2021/09/19 13:00:43;;;;;;;2.90;2.70;;;;;;;;;;5115163;27;24416;-61
2021/09/19 13:03:09;;;;;;;3.30;3.10;;;;;;;;;;5125271;27;24511;-61
2021/09/19 13:05:34;;;;;;;3.00;2.80;;;;;;;;;;5110884;27;24500;-61
2021/09/19 13:08:00;;;;;;;3.03;2.83;;;;;;;;;;5123242;27;24760;-61
2021/09/19 13:10:25;;;;;;;3.00;2.80;;;;;;;;;;5116299;27;24461;-61
2021/09/19 13:12:51;;;;;;;3.72;3.53;;;;;;;;;;5126195;27;24425;-60
2021/09/19 13:15:16;;;;;;;3.33;3.03;;;;;;;;;;5114840;27;24409;-61
2021/09/19 13:17:42;;;;;;;3.25;2.92;;;;;;;;;;5119287;27;24448;-61
2021/09/19 13:20:07;;;;;;;3.20;3.00;;;;;;;;;;5113331;27;24426;-61
2021/09/19 13:22:32;;;;;;;3.30;3.10;;;;;;;;;;5115495;28;24438;-60
2021/09/19 13:24:57;;;;;;;3.95;3.60;;;;;;;;;;5124070;28;24417;-60
2021/09/19 13:27:22;;;;;;;3.10;2.90;;;;;;;;;;5126178;27;24428;-61
2021/09/19 13:29:48;;;;;;;2.77;2.57;;;;;;;;;;5123686;27;24810;-61
2021/09/19 13:32:13;;;;;;;2.33;2.22;;;;;;;;;;5119763;28;24503;-60
2021/09/19 13:34:38;;;;;;;3.65;2.90;;;;;;;;;;5115195;28;24505;-61
2021/09/19 13:37:03;;;;;;;2.90;2.70;;;;;;;;;;5123535;28;24883;-61
2021/09/19 13:39:28;;;;;;;3.20;2.90;;;;;;;;;;5125028;28;24481;-60
2021/09/19 13:41:53;;;;;;;3.10;2.80;;;;;;;;;;5125172;28;24811;-61
2021/09/19 13:44:19;;;;;;;2.80;2.60;;;;;;;;;;5125005;28;24991;-60
2021/09/19 13:46:44;;;;;;;3.40;3.20;;;;;;;;;;5125875;28;24410;-59
2021/09/19 13:49:09;;;;;;;3.40;3.20;;;;;;;;;;5125392;28;24701;-60
2021/09/19 13:51:35;;;;;;;3.33;3.13;;;;;;;;;;5120841;27;24424;-59
2021/09/19 13:54:01;;;;;;;3.30;3.10;;;;;;;;;;5122860;27;24502;-60
2021/09/19 13:56:26;;;;;;;4.00;3.70;;;;;;;;;;5123028;27;24443;-59
2021/09/19 13:58:51;;;;;;;3.43;3.20;;;;;;;;;;5121347;27;24495;-59
2021/09/19 14:01:17;;;;;;;3.50;3.20;;;;;;;;;;5129847;27;24397;-59
2021/09/19 14:03:42;;;;;;;4.00;3.70;;;;;;;;;;5128590;27;24425;-60
2021/09/19 14:06:07;;;;;;;3.70;3.40;;;;;;;;;;5117926;27;24937;-60
2021/09/19 14:08:32;;;;;;;3.70;3.40;;;;;;;;;;5123190;27;24952;-59
2021/09/19 14:10:57;;;;;;;3.80;3.60;;;;;;;;;;5130101;27;24400;-60
2021/09/19 14:13:22;;;;;;;3.97;3.67;;;;;;;;;;5129264;27;24508;-60
2021/09/19 14:15:48;;;;;;;4.00;3.70;;;;;;;;;;5127491;27;25024;-60
2021/09/19 14:18:13;;;;;;;3.90;3.60;;;;;;;;;;5129422;27;24402;-59
2021/09/19 14:20:38;;;;;;;3.92;3.63;;;;;;;;;;5129126;27;25119;-59
2021/09/19 14:23:04;;;;;;;4.20;3.90;;;;;;;;;;5128805;27;24401;-60
2021/09/19 14:25:29;;;;;;;3.90;3.60;;;;;;;;;;5119385;27;24987;-61
2021/09/19 14:27:56;;;;;;;3.50;3.20;;;;;;;;;;5128482;27;24416;-61
2021/09/19 14:30:22;;;;;;;3.80;3.50;;;;;;;;;;5128405;27;24427;-61
2021/09/19 14:32:47;;;;;;;3.70;3.50;;;;;;;;;;5128039;27;24524;-60
2021/09/19 14:35:13;;;;;;;4.10;3.80;;;;;;;;;;5129014;27;24409;-61
2021/09/19 14:37:39;;;;;;;4.60;4.10;;;;;;;;;;5128775;27;24420;-61